Cfl Racer — PJMV — position and weather

sailwx.info

Track history (hours):
 
Tides and Currents Weather Stations Pressure Air Temp Water Temp Dewpoint Dewpoint Depression Visibility Wind Speed Wind Dir Waves Ship Positions

Cfl Racer

Last reported at 2015-Jan-28 15:34 UTC. Time now 2015-Jan-28 16:16 UTC.
Position N 51°09' E 003°47'.

Length 83 m; draft 3.2 m.

Type: Cargo ship. MMSI: 306762000.

Date/timePositionNaut miles runAvg speedWind from/ knotsBaromVisibWave heightAir tempDewpointWater temp
2015-Jan-28 15:34N 51°09' E 003°47'0 0.0
2015-Jan-28 14:34N 51°09' E 003°47'0 0.0
2015-Jan-28 13:24N 51°09' E 003°47'0 0.0
2015-Jan-28 12:30N 51°09' E 003°47'0 0.0
2015-Jan-28 11:34N 51°09' E 003°47'0 0.0
2015-Jan-28 10:33N 51°09' E 003°47'0 0.0
2015-Jan-28 09:33N 51°09' E 003°47'0 0.0
2015-Jan-28 08:33N 51°09' E 003°47'0 0.0
2015-Jan-28 07:33N 51°09' E 003°47'0 0.0
2015-Jan-28 06:28N 51°09' E 003°47'0 0.0
2015-Jan-28 05:33N 51°09' E 003°47'0 0.0
2015-Jan-28 04:31N 51°09' E 003°47'0 0.0
2015-Jan-28 03:33N 51°09' E 003°47'0 0.0
2015-Jan-28 02:31N 51°09' E 003°47'0 0.0
2015-Jan-28 01:33N 51°09' E 003°47'0 0.0
2015-Jan-28 00:33N 51°09' E 003°47'0 0.0
2015-Jan-27 23:33N 51°09' E 003°47'0 0.0
2015-Jan-27 22:31N 51°09' E 003°47'0 0.0
2015-Jan-27 21:34N 51°09' E 003°47'0 0.0
2015-Jan-27 20:34N 51°09' E 003°47'0 0.0
2015-Jan-27 19:24N 51°09' E 003°47'0 0.0
2015-Jan-27 18:33N 51°09' E 003°47'0 0.0
2015-Jan-27 17:33N 51°09' E 003°47'0 0.0
2015-Jan-27 16:33N 51°09' E 003°47'0 0.0
2015-Jan-27 15:33N 51°09' E 003°47'0 0.0
2015-Jan-27 14:33N 51°09' E 003°47'0 0.0
2015-Jan-27 13:30N 51°09' E 003°47'0 0.0
2015-Jan-27 12:33N 51°09' E 003°47'0 0.0
2015-Jan-27 11:30N 51°09' E 003°47'0 0.0
2015-Jan-27 10:33N 51°09' E 003°47'0 0.0
2015-Jan-27 09:33N 51°09' E 003°47'0 0.0
2015-Jan-27 08:33N 51°09' E 003°47'0 0.0
2015-Jan-27 07:33N 51°09' E 003°47'0 0.0
2015-Jan-27 06:33N 51°09' E 003°47'0 0.0
2015-Jan-27 05:33N 51°09' E 003°47'0 0.0
2015-Jan-27 04:33N 51°09' E 003°47'0 0.0
2015-Jan-27 03:33N 51°09' E 003°47'0 0.0
2015-Jan-27 02:33N 51°09' E 003°47'0 0.0
2015-Jan-27 01:27N 51°09' E 003°47'0 0.0
2015-Jan-27 00:33N 51°09' E 003°47'0 0.0
2015-Jan-26 23:33N 51°09' E 003°47'0 0.0
2015-Jan-26 22:27N 51°09' E 003°47'0 0.0
2015-Jan-26 21:33N 51°09' E 003°47'5 5.2
2015-Jan-26 20:33N 51°14' E 003°49'5 5.4
2015-Jan-26 19:33N 51°20' E 003°49'1 1.4
2015-Jan-26 18:33N 51°21' E 003°48'4 4.2
2015-Jan-26 17:33N 51°23' E 003°42'1110.5
2015-Jan-26 16:33N 51°30' E 003°29'1311.6
2015-Jan-26 15:26N 51°40' E 003°17'1111.8
2015-Jan-26 14:33N 51°49' E 003°07'6112.1
2015-Jan-26 09:33N 52°33' E 001°59'1111.2
2015-Jan-26 08:33N 52°42' E 001°50'1010.3
2015-Jan-26 07:33N 52°50' E 001°39'10 9.5
2015-Jan-26 06:33N 52°57' E 001°27'9 9.3
2015-Jan-26 05:33N 53°01' E 001°13'33 9.7
2015-Jan-26 02:09N 53°22' E 000°31'610.1
2015-Jan-26 01:33N 53°27' E 000°25'1010.0
2015-Jan-26 00:33N 53°33' E 000°11'1514.9
2015-Jan-25 23:34N 53°39' W 000°11'6 6.0
2015-Jan-25 22:33N 53°45' W 000°16'0 0.3
2015-Jan-25 21:33N 53°45' W 000°15'0 0.0
2015-Jan-25 20:33N 53°44' W 000°15'0 0.1
2015-Jan-25 19:33N 53°45' W 000°15'0 0.1
2015-Jan-25 18:33N 53°45' W 000°15'0 0.0
2015-Jan-25 17:27N 53°44' W 000°15'0 0.0
2015-Jan-25 16:33N 53°44' W 000°15'0 0.0
2015-Jan-25 15:33N 53°44' W 000°15'0 0.0
2015-Jan-25 14:33N 53°45' W 000°15'0 0.0
2015-Jan-25 13:33N 53°44' W 000°15'1 0.6
2015-Jan-25 12:33N 53°44' W 000°16'6 6.3
2015-Jan-25 11:34N 53°39' W 000°11'8 8.2
2015-Jan-25 10:33N 53°35' E 000°02'9 9.1
2015-Jan-25 09:33N 53°33' E 000°16'4410.2
2015-Jan-25 05:14N 53°01' E 001°08'912.7
2015-Jan-25 04:33N 52°58' E 001°22'1313.1
2015-Jan-25 03:33N 52°50' E 001°39'1212.0
2015-Jan-25 02:33N 52°41' E 001°51'1010.5
2015-Jan-25 01:33N 52°32' E 002°00'54 8.8
2015-Jan-24 19:22N 51°52' E 002°60'8 9.5
2015-Jan-24 18:32N 51°47' E 003°10'11 8.5
2015-Jan-24 17:11N 51°38' E 003°21'710.2
2015-Jan-24 16:33N 51°32' E 003°26'9 9.2
2015-Jan-24 15:33N 51°26' E 003°37'7 7.3
2015-Jan-24 14:33N 51°22' E 003°46'3 3.1
2015-Jan-24 13:34N 51°19' E 003°49'6 5.5
2015-Jan-24 12:33N 51°14' E 003°48'3 3.2
2015-Jan-24 11:32N 51°11' E 003°48'0 0.0
2015-Jan-24 10:32N 51°11' E 003°48'0 0.0
2015-Jan-24 09:23N 51°11' E 003°48'0 0.0
2015-Jan-24 08:26N 51°11' E 003°48'0 0.0
2015-Jan-24 07:29N 51°11' E 003°48'0 0.0
2015-Jan-24 06:32N 51°11' E 003°48'0 0.0
2015-Jan-24 05:29N 51°11' E 003°48'0 0.0
2015-Jan-24 04:32N 51°11' E 003°48'0 0.0
2015-Jan-24 03:32N 51°11' E 003°48'0 0.0
2015-Jan-24 02:32N 51°11' E 003°48'0 0.0
2015-Jan-24 01:32N 51°11' E 003°48'0 0.0
2015-Jan-24 00:32N 51°11' E 003°48'0 0.0
2015-Jan-23 23:32N 51°11' E 003°48'0 0.0
2015-Jan-23 22:32N 51°11' E 003°48'0 0.0
2015-Jan-23 21:32N 51°11' E 003°48'0 0.0
2015-Jan-23 20:26N 51°11' E 003°48'0 0.0
2015-Jan-23 19:26N 51°11' E 003°48'0 0.0
2015-Jan-23 18:32N 51°11' E 003°48'0 0.0
2015-Jan-23 17:32N 51°11' E 003°48'0 0.0
2015-Jan-23 16:29N 51°11' E 003°48'0 0.0
2015-Jan-23 15:32N 51°11' E 003°48'0 0.0
2015-Jan-23 14:29N 51°11' E 003°48'0 0.0
2015-Jan-23 13:32N 51°11' E 003°48'0 0.0
2015-Jan-23 12:32N 51°11' E 003°48'0 0.0
2015-Jan-23 11:29N 51°11' E 003°48'0 0.0
2015-Jan-23 10:29N 51°11' E 003°48'0 0.0
2015-Jan-23 09:32N 51°11' E 003°48'0 0.0
2015-Jan-23 08:29N 51°11' E 003°48'0 0.0
2015-Jan-23 07:32N 51°11' E 003°48'0 0.0
2015-Jan-23 06:32N 51°11' E 003°48'0 0.0
2015-Jan-23 05:26N 51°11' E 003°48'0 0.0
2015-Jan-23 04:32N 51°11' E 003°48'0 0.0
2015-Jan-23 03:33N 51°11' E 003°48'0 0.1
2015-Jan-23 02:32N 51°11' E 003°48'0 0.1
2015-Jan-23 01:32N 51°11' E 003°48'0 0.0
2015-Jan-23 00:29N 51°11' E 003°48'0 0.0
2015-Jan-22 23:29N 51°11' E 003°48'0 0.0
2015-Jan-22 22:29N 51°11' E 003°48'1 1.2
2015-Jan-22 21:32N 51°10' E 003°47'0 0.0
2015-Jan-22 20:26N 51°10' E 003°47'0 0.0
2015-Jan-22 19:32N 51°10' E 003°47'0 0.0
2015-Jan-22 18:32N 51°10' E 003°47'0 0.0
2015-Jan-22 17:32N 51°10' E 003°47'0 0.0
2015-Jan-22 16:32N 51°10' E 003°47'0 0.0
2015-Jan-22 15:32N 51°10' E 003°47'0 0.0
2015-Jan-22 14:29N 51°10' E 003°47'0 0.0
2015-Jan-22 13:32N 51°10' E 003°47'0 0.0
2015-Jan-22 12:29N 51°10' E 003°47'0 0.0
2015-Jan-22 11:32N 51°10' E 003°47'0 0.0
2015-Jan-22 10:32N 51°10' E 003°47'0 0.0
2015-Jan-22 09:26N 51°10' E 003°47'0 0.0
2015-Jan-22 08:32N 51°10' E 003°47'0 0.0
2015-Jan-22 07:32N 51°10' E 003°47'0 0.0
2015-Jan-22 06:20N 51°10' E 003°47'0 0.0
2015-Jan-22 05:32N 51°10' E 003°47'0 0.0
2015-Jan-22 03:32N 51°10' E 003°47'0 0.0
2015-Jan-22 02:32N 51°10' E 003°47'0 0.0
2015-Jan-22 01:32N 51°10' E 003°47'0 0.0
2015-Jan-22 00:26N 51°10' E 003°47'0 0.0
2015-Jan-21 23:32N 51°10' E 003°47'0 0.0
2015-Jan-21 22:50N 51°10' E 003°47'0 0.0
2015-Jan-21 22:38N 51°10' E 003°47'0 0.1
2015-Jan-21 22:32N 51°10' E 003°47'0 0.0
2015-Jan-21 21:32N 51°10' E 003°47'0 0.0
2015-Jan-21 20:32N 51°10' E 003°47'0 0.0
2015-Jan-21 19:32N 51°10' E 003°47'0 0.0
2015-Jan-21 18:26N 51°10' E 003°47'0 0.0
2015-Jan-21 17:32N 51°10' E 003°47'0 0.0
2015-Jan-21 16:32N 51°10' E 003°47'0 0.0
2015-Jan-21 15:26N 51°10' E 003°47'0 0.0
2015-Jan-21 14:32N 51°10' E 003°47'0 0.0
2015-Jan-21 13:26N 51°10' E 003°47'0 0.0
2015-Jan-21 12:32N 51°10' E 003°47'7 7.0
2015-Jan-21 11:34N 51°16' E 003°50'4 3.7
2015-Jan-21 10:33N 51°20' E 003°49'1010.3
2015-Jan-21 09:34N 51°26' E 003°35'2311.5
2015-Jan-21 07:31N 51°44' E 003°12'9 9.4
2015-Jan-21 06:33N 51°51' E 003°02'48 9.4
2015-Jan-21 01:26N 52°29' E 002°14'8 9.0
2015-Jan-21 00:33N 52°35' E 002°07'1010.0
2015-Jan-20 23:33N 52°43' E 001°57'1111.1
2015-Jan-20 22:33N 52°50' E 001°43'1211.8
2015-Jan-20 21:33N 52°57' E 001°27'46 0.9
2015-Jan-18 17:33N 53°23' E 000°24'1110.8
2015-Jan-18 16:33N 53°32' E 000°14'  
Track history (hours):
 
Tides and Currents Weather Stations Pressure Air Temp Water Temp Dewpoint Dewpoint Depression Visibility Wind Speed Wind Dir Waves Ship Positions

Cfl Racer

Last reported at 2015-Jan-28 15:34 UTC. Time now 2015-Jan-28 16:16 UTC.
Position N 51°09' E 003°47'.

Length 83 m; draft 3.2 m.

Type: Cargo ship. MMSI: 306762000.

Date/timePositionNaut miles runAvg speedWind from/ knotsBaromVisibWave heightAir tempDewpointWater temp
2015-Jan-28 15:34N 51°09' E 003°47'0 0.0
2015-Jan-28 14:34N 51°09' E 003°47'0 0.0
2015-Jan-28 13:24N 51°09' E 003°47'0 0.0
2015-Jan-28 12:30N 51°09' E 003°47'0 0.0
2015-Jan-28 11:34N 51°09' E 003°47'0 0.0
2015-Jan-28 10:33N 51°09' E 003°47'0 0.0
2015-Jan-28 09:33N 51°09' E 003°47'0 0.0
2015-Jan-28 08:33N 51°09' E 003°47'0 0.0
2015-Jan-28 07:33N 51°09' E 003°47'0 0.0
2015-Jan-28 06:28N 51°09' E 003°47'0 0.0
2015-Jan-28 05:33N 51°09' E 003°47'0 0.0
2015-Jan-28 04:31N 51°09' E 003°47'0 0.0
2015-Jan-28 03:33N 51°09' E 003°47'0 0.0
2015-Jan-28 02:31N 51°09' E 003°47'0 0.0
2015-Jan-28 01:33N 51°09' E 003°47'0 0.0
2015-Jan-28 00:33N 51°09' E 003°47'0 0.0
2015-Jan-27 23:33N 51°09' E 003°47'0 0.0
2015-Jan-27 22:31N 51°09' E 003°47'0 0.0
2015-Jan-27 21:34N 51°09' E 003°47'0 0.0
2015-Jan-27 20:34N 51°09' E 003°47'0 0.0
2015-Jan-27 19:24N 51°09' E 003°47'0 0.0
2015-Jan-27 18:33N 51°09' E 003°47'0 0.0
2015-Jan-27 17:33N 51°09' E 003°47'0 0.0
2015-Jan-27 16:33N 51°09' E 003°47'0 0.0
2015-Jan-27 15:33N 51°09' E 003°47'0 0.0
2015-Jan-27 14:33N 51°09' E 003°47'0 0.0
2015-Jan-27 13:30N 51°09' E 003°47'0 0.0
2015-Jan-27 12:33N 51°09' E 003°47'0 0.0
2015-Jan-27 11:30N 51°09' E 003°47'0 0.0
2015-Jan-27 10:33N 51°09' E 003°47'0 0.0
2015-Jan-27 09:33N 51°09' E 003°47'0 0.0
2015-Jan-27 08:33N 51°09' E 003°47'0 0.0
2015-Jan-27 07:33N 51°09' E 003°47'0 0.0
2015-Jan-27 06:33N 51°09' E 003°47'0 0.0
2015-Jan-27 05:33N 51°09' E 003°47'0 0.0
2015-Jan-27 04:33N 51°09' E 003°47'0 0.0
2015-Jan-27 03:33N 51°09' E 003°47'0 0.0
2015-Jan-27 02:33N 51°09' E 003°47'0 0.0
2015-Jan-27 01:27N 51°09' E 003°47'0 0.0
2015-Jan-27 00:33N 51°09' E 003°47'0 0.0
2015-Jan-26 23:33N 51°09' E 003°47'0 0.0
2015-Jan-26 22:27N 51°09' E 003°47'0 0.0
2015-Jan-26 21:33N 51°09' E 003°47'5 5.2
2015-Jan-26 20:33N 51°14' E 003°49'5 5.4
2015-Jan-26 19:33N 51°20' E 003°49'1 1.4
2015-Jan-26 18:33N 51°21' E 003°48'4 4.2
2015-Jan-26 17:33N 51°23' E 003°42'1110.5
2015-Jan-26 16:33N 51°30' E 003°29'1311.6
2015-Jan-26 15:26N 51°40' E 003°17'1111.8
2015-Jan-26 14:33N 51°49' E 003°07'6112.1
2015-Jan-26 09:33N 52°33' E 001°59'1111.2
2015-Jan-26 08:33N 52°42' E 001°50'1010.3
2015-Jan-26 07:33N 52°50' E 001°39'10 9.5
2015-Jan-26 06:33N 52°57' E 001°27'9 9.3
2015-Jan-26 05:33N 53°01' E 001°13'33 9.7
2015-Jan-26 02:09N 53°22' E 000°31'610.1
2015-Jan-26 01:33N 53°27' E 000°25'1010.0
2015-Jan-26 00:33N 53°33' E 000°11'1514.9
2015-Jan-25 23:34N 53°39' W 000°11'6 6.0
2015-Jan-25 22:33N 53°45' W 000°16'0 0.3
2015-Jan-25 21:33N 53°45' W 000°15'0 0.0
2015-Jan-25 20:33N 53°44' W 000°15'0 0.1
2015-Jan-25 19:33N 53°45' W 000°15'0 0.1
2015-Jan-25 18:33N 53°45' W 000°15'0 0.0
2015-Jan-25 17:27N 53°44' W 000°15'0 0.0
2015-Jan-25 16:33N 53°44' W 000°15'0 0.0
2015-Jan-25 15:33N 53°44' W 000°15'0 0.0
2015-Jan-25 14:33N 53°45' W 000°15'0 0.0
2015-Jan-25 13:33N 53°44' W 000°15'1 0.6
2015-Jan-25 12:33N 53°44' W 000°16'6 6.3
2015-Jan-25 11:34N 53°39' W 000°11'8 8.2
2015-Jan-25 10:33N 53°35' E 000°02'9 9.1
2015-Jan-25 09:33N 53°33' E 000°16'4410.2
2015-Jan-25 05:14N 53°01' E 001°08'912.7
2015-Jan-25 04:33N 52°58' E 001°22'1313.1
2015-Jan-25 03:33N 52°50' E 001°39'1212.0
2015-Jan-25 02:33N 52°41' E 001°51'1010.5
2015-Jan-25 01:33N 52°32' E 002°00'54 8.8
2015-Jan-24 19:22N 51°52' E 002°60'8 9.5
2015-Jan-24 18:32N 51°47' E 003°10'11 8.5
2015-Jan-24 17:11N 51°38' E 003°21'710.2
2015-Jan-24 16:33N 51°32' E 003°26'9 9.2
2015-Jan-24 15:33N 51°26' E 003°37'7 7.3
2015-Jan-24 14:33N 51°22' E 003°46'3 3.1
2015-Jan-24 13:34N 51°19' E 003°49'6 5.5
2015-Jan-24 12:33N 51°14' E 003°48'3 3.2
2015-Jan-24 11:32N 51°11' E 003°48'0 0.0
2015-Jan-24 10:32N 51°11' E 003°48'0 0.0
2015-Jan-24 09:23N 51°11' E 003°48'0 0.0
2015-Jan-24 08:26N 51°11' E 003°48'0 0.0
2015-Jan-24 07:29N 51°11' E 003°48'0 0.0
2015-Jan-24 06:32N 51°11' E 003°48'0 0.0
2015-Jan-24 05:29N 51°11' E 003°48'0 0.0
2015-Jan-24 04:32N 51°11' E 003°48'0 0.0
2015-Jan-24 03:32N 51°11' E 003°48'0 0.0
2015-Jan-24 02:32N 51°11' E 003°48'0 0.0
2015-Jan-24 01:32N 51°11' E 003°48'0 0.0
2015-Jan-24 00:32N 51°11' E 003°48'0 0.0
2015-Jan-23 23:32N 51°11' E 003°48'0 0.0
2015-Jan-23 22:32N 51°11' E 003°48'0 0.0
2015-Jan-23 21:32N 51°11' E 003°48'0 0.0
2015-Jan-23 20:26N 51°11' E 003°48'0 0.0
2015-Jan-23 19:26N 51°11' E 003°48'0 0.0
2015-Jan-23 18:32N 51°11' E 003°48'0 0.0
2015-Jan-23 17:32N 51°11' E 003°48'0 0.0
2015-Jan-23 16:29N 51°11' E 003°48'0 0.0
2015-Jan-23 15:32N 51°11' E 003°48'0 0.0
2015-Jan-23 14:29N 51°11' E 003°48'0 0.0
2015-Jan-23 13:32N 51°11' E 003°48'0 0.0
2015-Jan-23 12:32N 51°11' E 003°48'0 0.0
2015-Jan-23 11:29N 51°11' E 003°48'0 0.0
2015-Jan-23 10:29N 51°11' E 003°48'0 0.0
2015-Jan-23 09:32N 51°11' E 003°48'0 0.0
2015-Jan-23 08:29N 51°11' E 003°48'0 0.0
2015-Jan-23 07:32N 51°11' E 003°48'0 0.0
2015-Jan-23 06:32N 51°11' E 003°48'0 0.0
2015-Jan-23 05:26N 51°11' E 003°48'0 0.0
2015-Jan-23 04:32N 51°11' E 003°48'0 0.0
2015-Jan-23 03:33N 51°11' E 003°48'0 0.1
2015-Jan-23 02:32N 51°11' E 003°48'0 0.1
2015-Jan-23 01:32N 51°11' E 003°48'0 0.0
2015-Jan-23 00:29N 51°11' E 003°48'0 0.0
2015-Jan-22 23:29N 51°11' E 003°48'0 0.0
2015-Jan-22 22:29N 51°11' E 003°48'1 1.2
2015-Jan-22 21:32N 51°10' E 003°47'0 0.0
2015-Jan-22 20:26N 51°10' E 003°47'0 0.0
2015-Jan-22 19:32N 51°10' E 003°47'0 0.0
2015-Jan-22 18:32N 51°10' E 003°47'0 0.0
2015-Jan-22 17:32N 51°10' E 003°47'0 0.0
2015-Jan-22 16:32N 51°10' E 003°47'0 0.0
2015-Jan-22 15:32N 51°10' E 003°47'0 0.0
2015-Jan-22 14:29N 51°10' E 003°47'0 0.0
2015-Jan-22 13:32N 51°10' E 003°47'0 0.0
2015-Jan-22 12:29N 51°10' E 003°47'0 0.0
2015-Jan-22 11:32N 51°10' E 003°47'0 0.0
2015-Jan-22 10:32N 51°10' E 003°47'0 0.0
2015-Jan-22 09:26N 51°10' E 003°47'0 0.0
2015-Jan-22 08:32N 51°10' E 003°47'0 0.0
2015-Jan-22 07:32N 51°10' E 003°47'0 0.0
2015-Jan-22 06:20N 51°10' E 003°47'0 0.0
2015-Jan-22 05:32N 51°10' E 003°47'0 0.0
2015-Jan-22 03:32N 51°10' E 003°47'0 0.0
2015-Jan-22 02:32N 51°10' E 003°47'0 0.0
2015-Jan-22 01:32N 51°10' E 003°47'0 0.0
2015-Jan-22 00:26N 51°10' E 003°47'0 0.0
2015-Jan-21 23:32N 51°10' E 003°47'0 0.0
2015-Jan-21 22:50N 51°10' E 003°47'0 0.0
2015-Jan-21 22:38N 51°10' E 003°47'0 0.1
2015-Jan-21 22:32N 51°10' E 003°47'0 0.0
2015-Jan-21 21:32N 51°10' E 003°47'0 0.0
2015-Jan-21 20:32N 51°10' E 003°47'0 0.0
2015-Jan-21 19:32N 51°10' E 003°47'0 0.0
2015-Jan-21 18:26N 51°10' E 003°47'0 0.0
2015-Jan-21 17:32N 51°10' E 003°47'0 0.0
2015-Jan-21 16:32N 51°10' E 003°47'0 0.0
2015-Jan-21 15:26N 51°10' E 003°47'0 0.0
2015-Jan-21 14:32N 51°10' E 003°47'0 0.0
2015-Jan-21 13:26N 51°10' E 003°47'0 0.0
2015-Jan-21 12:32N 51°10' E 003°47'7 7.0
2015-Jan-21 11:34N 51°16' E 003°50'4 3.7
2015-Jan-21 10:33N 51°20' E 003°49'1010.3
2015-Jan-21 09:34N 51°26' E 003°35'2311.5
2015-Jan-21 07:31N 51°44' E 003°12'9 9.4
2015-Jan-21 06:33N 51°51' E 003°02'48 9.4
2015-Jan-21 01:26N 52°29' E 002°14'8 9.0
2015-Jan-21 00:33N 52°35' E 002°07'1010.0
2015-Jan-20 23:33N 52°43' E 001°57'1111.1
2015-Jan-20 22:33N 52°50' E 001°43'1211.8
2015-Jan-20 21:33N 52°57' E 001°27'46 0.9
2015-Jan-18 17:33N 53°23' E 000°24'1110.8
2015-Jan-18 16:33N 53°32' E 000°14'  

Dump ship's entire track history